Time;durP1;ratioP1;P1;durP2;ratioP2;P2;SDS_P1;SDS_P2;PMS_P1;PMS_P2;Temp;Humidity;BMP_temperature;BMP_pressure;BME280_temperature;BME280_humidity;BME280_pressure;Samples;Min_cycle;Max_cycle;Signal;HPM_P1;HPM_P2
2021/12/22 00:02:15;;;;;;;;;;;;;;;-4.85;76.06;97221.22;5095283;28;20308;-75
2021/12/22 00:04:46;;;;;;;;;;;;;;;-4.85;75.88;97213.56;5095074;28;19951;-75
2021/12/22 00:07:13;;;;;;;;;;;;;;;-4.89;75.71;97205.28;5095214;28;20376;-75
2021/12/22 00:09:39;;;;;;;;;;;;;;;-4.93;75.50;97211.53;5095221;28;19966;-75
2021/12/22 00:12:05;;;;;;;;;;;;;;;-4.95;75.96;97205.69;5095333;28;19971;-75
2021/12/22 00:14:31;;;;;;;;;;;;;;;-4.98;76.16;97206.69;5094905;28;20314;-75
2021/12/22 00:16:57;;;;;;;;;;;;;;;-5.00;76.13;97197.50;5077053;28;19950;-75
2021/12/22 00:19:23;;;;;;;;;;;;;;;-5.01;75.90;97203.56;5094823;28;20051;-75
2021/12/22 00:21:49;;;;;;;;;;;;;;;-5.02;75.95;97202.72;5095043;28;20017;-74
2021/12/22 00:24:15;;;;;;;;;;;;;;;-5.03;75.40;97203.66;5076787;28;19966;-74
2021/12/22 00:26:41;;;;;;;;;;;;;;;-5.04;75.44;97202.03;5094864;28;19957;-74
2021/12/22 00:29:08;;;;;;;;;;;;;;;-5.05;75.60;97204.66;5094792;28;20062;-74
2021/12/22 00:31:41;;;;;;;;;;;;;;;-5.10;75.32;97208.34;5076656;28;19958;-74
2021/12/22 00:34:16;;;;;;;;;;;;;;;-5.11;75.54;97208.44;5094945;28;19956;-74
2021/12/22 00:36:42;;;;;;;;;;;;;;;-5.15;76.01;97202.72;5094854;28;19952;-75
2021/12/22 00:39:08;;;;;;;;;;;;;;;-5.17;75.69;97217.34;5094680;28;19968;-73
2021/12/22 00:41:34;;;;;;;;;;;;;;;-5.18;75.53;97218.25;5094537;28;19955;-75
2021/12/22 00:44:00;;;;;;;;;;;;;;;-5.19;75.57;97218.34;5094628;28;20001;-74
2021/12/22 00:46:26;;;;;;;;;;;;;;;-5.22;75.78;97218.56;5094445;28;19961;-74
2021/12/22 00:48:52;;;;;;;;;;;;;;;-5.24;75.54;97221.22;5094355;28;20005;-75
2021/12/22 00:51:18;;;;;;;;;;;;;;;-5.27;75.86;97213.78;5094490;28;19958;-74
2021/12/22 00:53:46;;;;;;;;;;;;;;;-5.30;75.74;97216.50;5094390;28;19980;-73
2021/12/22 00:56:13;;;;;;;;;;;;;;;-5.31;76.28;97212.31;5094329;28;19959;-73
2021/12/22 00:58:39;;;;;;;;;;;;;;;-5.32;75.81;97208.13;5094213;28;19963;-74
2021/12/22 01:01:05;;;;;;;;;;;;;;;-5.32;75.68;97214.03;5092902;28;19957;-73
2021/12/22 01:03:34;;;;;;;;;;;;;;;-5.34;75.59;97215.88;5094444;28;19954;-74
2021/12/22 01:06:01;;;;;;;;;;;;;;;-5.38;75.39;97217.00;5075786;28;19961;-74
2021/12/22 01:08:26;;;;;;;;;;;;;;;-5.38;75.89;97217.00;5094284;28;19966;-75
2021/12/22 01:10:52;;;;;;;;;;;;;;;-5.38;75.75;97218.75;5094417;28;20039;-73
2021/12/22 01:13:18;;;;;;;;;;;;;;;-5.39;75.92;97212.81;5094043;28;20048;-74
2021/12/22 01:15:44;;;;;;;;;;;;;;;-5.41;75.56;97213.84;5094214;28;19955;-72
2021/12/22 01:18:14;;;;;;;;;;;;;;;-5.43;75.83;97215.69;5093585;28;20459;-73
2021/12/22 01:21:04;;;;;;;;;;;;;;;-5.44;75.38;97222.50;5075897;28;19950;-72
2021/12/22 01:23:35;;;;;;;;;;;;;;;-5.45;75.71;97220.06;5092961;28;19965;-74
2021/12/22 01:26:04;;;;;;;;;;;;;;;-5.48;75.87;97222.81;5081120;28;20408;-74
2021/12/22 01:28:29;;;;;;;;;;;;;;;-5.49;75.88;97227.09;5094124;28;19955;-74
2021/12/22 01:31:01;;;;;;;;;;;;;;;-5.49;76.00;97231.41;5093534;28;19972;-73
2021/12/22 01:33:27;;;;;;;;;;;;;;;-5.51;75.66;97228.94;5092922;28;19964;-74
2021/12/22 01:35:56;;;;;;;;;;;;;;;-5.52;75.73;97235.78;5093542;28;19945;-75
2021/12/22 01:38:22;;;;;;;;;;;;;;;-5.54;75.97;97235.06;5093714;28;19972;-75
2021/12/22 01:40:48;;;;;;;;;;;;;;;-5.54;75.30;97229.16;5093450;28;20413;-74
2021/12/22 01:43:15;;;;;;;;;;;;;;;-5.54;75.43;97229.16;5093611;28;19966;-74
2021/12/22 01:51:44;;;;;;;;;;;;;;;-5.61;74.88;97227.88;5097822;28;19955;-74
2021/12/22 01:54:19;;;;;;;;;;;;;;;-5.60;74.66;97216.75;5097612;28;20425;-74
2021/12/22 01:56:46;;;;;;;;;;;;;;;-5.60;74.90;97225.25;5097787;28;19964;-74
2021/12/22 01:59:12;;;;;;;;;;;;;;;-5.60;75.44;97225.25;5097632;28;19965;-74
2021/12/22 02:01:38;;;;;;;;;;;;;;;-5.62;75.25;97229.63;5097402;28;20421;-74
2021/12/22 02:04:10;;;;;;;;;;;;;;;-5.63;75.40;97234.81;5097549;28;19959;-76
2021/12/22 02:06:54;;;;;;;;;;;;;;;-5.65;75.48;97234.91;5084532;28;19957;-74
2021/12/22 02:11:55;;;;;;;;;;;;;;;-5.69;75.08;97230.94;5097276;28;19954;-74
2021/12/22 02:14:21;;;;;;;;;;;;;;;-5.69;75.01;97228.41;5098017;28;20009;-74
2021/12/22 02:16:47;;;;;;;;;;;;;;;-5.69;75.18;97230.94;5097391;28;20407;-74
2021/12/22 02:19:14;;;;;;;;;;;;;;;-5.71;75.54;97225.94;5097131;28;19973;-74
2021/12/22 02:21:46;;;;;;;;;;;;;;;-5.71;75.52;97218.25;5097319;28;19958;-74
2021/12/22 02:24:13;;;;;;;;;;;;;;;-5.73;75.47;97216.72;5097244;28;19956;-74
2021/12/22 02:26:47;;;;;;;;;;;;;;;-5.77;75.31;97223.75;5097058;28;19980;-73
2021/12/22 02:29:22;;;;;;;;;;;;;;;-5.79;74.87;97209.44;5097334;28;19958;-74
2021/12/22 02:32:06;;;;;;;;;;;;;;;-5.77;75.05;97211.00;5097126;28;19948;-73
2021/12/22 02:34:41;;;;;;;;;;;;;;;-5.79;75.21;97201.78;5096992;28;19956;-74
2021/12/22 02:37:12;;;;;;;;;;;;;;;-5.83;75.26;97211.38;5097200;28;19961;-79
2021/12/22 02:39:47;;;;;;;;;;;;;;;-5.85;74.93;97209.84;5083502;28;19970;-75
2021/12/22 02:42:14;;;;;;;;;;;;;;;-5.87;75.40;97211.66;5097061;28;19962;-75
2021/12/22 02:44:40;;;;;;;;;;;;;;;-5.90;75.35;97215.22;5096856;28;19958;-75
2021/12/22 02:47:35;;;;;;;;;;;;;;;-5.91;75.14;97216.16;5096709;28;19952;-74
2021/12/22 02:50:02;;;;;;;;;;;;;;;-5.93;74.94;97213.69;5073034;28;19966;-75
2021/12/22 02:52:35;;;;;;;;;;;;;;;-5.92;75.03;97214.53;5097033;28;19956;-75
2021/12/22 02:55:02;;;;;;;;;;;;;;;-5.93;75.41;97216.22;5096847;28;19985;-74
2021/12/22 02:57:38;;;;;;;;;;;;;;;-5.94;75.18;97216.34;5095879;28;19959;-75
2021/12/22 03:05:29;;;;;;;;;;;;;;;-5.97;74.96;97222.47;5062213;28;19958;-74
2021/12/22 03:07:55;;;;;;;;;;;;;;;-5.96;74.96;97223.31;5095769;28;19950;-74
2021/12/22 03:10:21;;;;;;;;;;;;;;;-5.95;74.95;97224.94;5096448;28;19976;-74
2021/12/22 03:12:53;;;;;;;;;;;;;;;-5.98;74.98;97220.03;5079019;28;19958;-74
2021/12/22 03:15:19;;;;;;;;;;;;;;;-6.01;74.70;97220.22;5096171;28;19961;-73
2021/12/22 03:17:46;;;;;;;;;;;;;;;-6.03;74.71;97210.09;5096144;28;19954;-74
2021/12/22 03:20:14;;;;;;;;;;;;;;;-6.03;74.81;97209.28;5096128;28;19960;-74
2021/12/22 03:22:43;;;;;;;;;;;;;;;-6.04;74.69;97210.19;5096060;28;19953;-74
2021/12/22 03:25:14;;;;;;;;;;;;;;;-6.05;74.84;97214.47;5087719;28;19957;-74
2021/12/22 03:27:42;;;;;;;;;;;;;;;-6.10;74.64;97219.06;5096136;28;19954;-74
2021/12/22 03:30:09;;;;;;;;;;;;;;;-6.12;74.66;97218.34;5095813;28;19950;-74
2021/12/22 03:32:35;;;;;;;;;;;;;;;-6.12;74.94;97219.16;5096083;28;19954;-74
2021/12/22 03:35:00;;;;;;;;;;;;;;;-6.12;74.47;97220.88;5094815;28;19962;-74
2021/12/22 03:37:26;;;;;;;;;;;;;;;-6.12;74.33;97219.16;5095614;28;19965;-73
2021/12/22 03:39:52;;;;;;;;;;;;;;;-6.12;74.74;97223.44;5095781;28;19978;-74
2021/12/22 03:42:18;;;;;;;;;;;;;;;-6.13;74.81;97226.91;5095906;28;20416;-73
2021/12/22 03:44:45;;;;;;;;;;;;;;;-6.13;74.38;97221.81;5096002;28;19959;-73
2021/12/22 03:47:11;;;;;;;;;;;;;;;-6.14;74.54;97226.06;5095720;28;19979;-74
2021/12/22 03:49:37;;;;;;;;;;;;;;;-6.14;74.46;97231.19;5095632;28;20466;-74
2021/12/22 03:52:03;;;;;;;;;;;;;;;-6.15;74.70;97234.66;5095706;28;19964;-74
2021/12/22 03:54:29;;;;;;;;;;;;;;;-6.17;74.45;97231.38;5095774;28;20007;-74
2021/12/22 03:56:56;;;;;;;;;;;;;;;-6.21;74.73;97229.94;5095565;28;20411;-74
2021/12/22 03:59:23;;;;;;;;;;;;;;;-6.23;74.47;97236.88;5095200;28;19975;-74
2021/12/22 04:01:49;;;;;;;;;;;;;;;-6.26;74.68;97236.22;5095370;28;19945;-74
2021/12/22 04:04:18;;;;;;;;;;;;;;;-6.26;74.90;97233.66;5095378;28;19962;-74
2021/12/22 04:06:45;;;;;;;;;;;;;;;-6.27;74.53;97229.50;5095304;28;19963;-74
2021/12/22 04:09:13;;;;;;;;;;;;;;;-6.27;74.82;97232.88;5095171;28;19959;-75
2021/12/22 04:11:39;;;;;;;;;;;;;;;-6.29;74.77;97229.59;5080786;28;19952;-74
2021/12/22 04:14:05;;;;;;;;;;;;;;;-6.31;74.72;97228.84;5094954;28;19954;-73
2021/12/22 04:16:31;;;;;;;;;;;;;;;-6.33;74.27;97223.03;5095057;28;19962;-74
2021/12/22 04:18:57;;;;;;;;;;;;;;;-6.33;74.28;97223.84;5093986;28;19974;-74
2021/12/22 04:21:23;;;;;;;;;;;;;;;-6.33;74.74;97223.03;5094863;28;19961;-74
2021/12/22 04:23:49;;;;;;;;;;;;;;;-6.36;74.75;97224.03;5095112;28;19969;-73
2021/12/22 04:26:15;;;;;;;;;;;;;;;-6.36;74.58;97218.13;5094925;28;19967;-73
2021/12/22 04:28:42;;;;;;;;;;;;;;;-6.38;74.54;97223.31;5094975;28;19979;-74
2021/12/22 04:31:08;;;;;;;;;;;;;;;-6.40;74.50;97216.66;5093809;28;19967;-75
2021/12/22 04:33:34;;;;;;;;;;;;;;;-6.43;74.60;97217.66;5094553;28;19962;-74
2021/12/22 04:35:59;;;;;;;;;;;;;;;-6.44;74.52;97210.91;5093238;28;20390;-74
2021/12/22 04:38:25;;;;;;;;;;;;;;;-6.45;74.76;97218.66;5076765;28;20053;-75
2021/12/22 04:40:51;;;;;;;;;;;;;;;-6.46;74.58;97225.50;5094603;28;19962;-73
2021/12/22 04:43:17;;;;;;;;;;;;;;;-6.45;74.66;97211.00;5094421;28;20450;-73
2021/12/22 04:45:43;;;;;;;;;;;;;;;-6.43;74.90;97211.72;5094458;28;19955;-74
2021/12/22 04:48:13;;;;;;;;;;;;;;;-6.42;75.17;97215.94;5094371;28;19956;-74
2021/12/22 04:50:39;;;;;;;;;;;;;;;-6.43;74.86;97215.09;5083261;28;19961;-74
2021/12/22 04:55:31;;;;;;;;;;;;;;;-6.52;74.55;97197.81;5094356;28;19979;-73
2021/12/22 04:57:58;;;;;;;;;;;;;;;-6.55;74.19;97201.38;5094180;28;19963;-74
2021/12/22 05:00:26;;;;;;;;;;;;;;;-6.57;74.53;97205.75;5094207;28;19976;-73
2021/12/22 05:02:55;;;;;;;;;;;;;;;-6.57;74.39;97207.47;5093565;28;20371;-73
2021/12/22 05:05:21;;;;;;;;;;;;;;;-6.57;74.33;97208.28;5093958;28;19958;-72
2021/12/22 05:07:47;;;;;;;;;;;;;;;-6.56;74.50;97204.00;5094027;28;19964;-73
2021/12/22 05:10:14;;;;;;;;;;;;;;;-6.55;74.69;97198.81;5093283;28;19960;-74
2021/12/22 05:12:40;;;;;;;;;;;;;;;-6.54;74.56;97205.53;5094108;28;20001;-75
2021/12/22 05:15:06;;;;;;;;;;;;;;;-6.52;74.95;97215.66;5094160;28;19951;-75
2021/12/22 05:20:05;;;;;;;;;;;;;;;-6.53;75.15;97211.47;5093892;28;20324;-73
2021/12/22 05:22:31;;;;;;;;;;;;;;;-6.53;74.95;97225.06;5075940;28;20409;-74
2021/12/22 05:24:59;;;;;;;;;;;;;;;-6.54;75.15;97217.50;5094453;28;19998;-73
2021/12/22 05:27:25;;;;;;;;;;;;;;;-6.54;74.88;97220.03;5093873;28;20405;-72
2021/12/22 05:29:51;;;;;;;;;;;;;;;-6.52;74.89;97218.22;5093566;28;19949;-74
2021/12/22 05:32:17;;;;;;;;;;;;;;;-6.49;75.63;97217.22;5094088;28;19958;-74
2021/12/22 05:34:43;;;;;;;;;;;;;;;-6.48;76.06;97221.41;5094221;28;19954;-74
2021/12/22 05:37:09;;;;;;;;;;;;;;;-6.46;76.69;97219.59;5093593;28;20395;-74
2021/12/22 05:39:35;;;;;;;;;;;;;;;-6.41;77.24;97223.47;5094187;28;19969;-73
2021/12/22 05:42:01;;;;;;;;;;;;;;;-6.41;77.43;97228.59;5093416;28;19961;-74
2021/12/22 05:44:27;;;;;;;;;;;;;;;-6.37;77.60;97227.50;5093728;28;19953;-74
2021/12/22 05:46:53;;;;;;;;;;;;;;;-6.37;77.28;97222.38;5093441;28;20366;-74
2021/12/22 05:49:19;;;;;;;;;;;;;;;-6.34;77.22;97229.88;5075536;28;20009;-75
2021/12/22 05:51:45;;;;;;;;;;;;;;;-6.34;77.07;97224.75;5093867;28;20027;-75
2021/12/22 05:54:11;;;;;;;;;;;;;;;-6.30;76.86;97222.81;5093643;28;20013;-75
2021/12/22 05:56:37;;;;;;;;;;;;;;;-6.28;78.57;97225.28;5093461;28;20051;-75
2021/12/22 05:59:03;;;;;;;;;;;;;;;-6.27;79.24;97219.28;5093180;28;19975;-75
2021/12/22 06:01:30;;;;;;;;;;;;;;;-6.25;78.95;97220.81;5093512;28;19963;-75
2021/12/22 06:03:56;;;;;;;;;;;;;;;-6.21;78.72;97221.47;5093531;28;19958;-74
2021/12/22 06:06:22;;;;;;;;;;;;;;;-6.20;78.55;97217.97;5075275;28;19986;-73
2021/12/22 06:08:48;;;;;;;;;;;;;;;-6.19;78.02;97222.19;5093751;28;19983;-74
2021/12/22 06:11:14;;;;;;;;;;;;;;;-6.19;77.76;97219.63;5093294;28;19960;-74
2021/12/22 06:13:40;;;;;;;;;;;;;;;-6.19;77.60;97224.75;5093230;28;19960;-74
2021/12/22 06:16:06;;;;;;;;;;;;;;;-6.19;78.11;97223.00;5093681;28;19954;-74
2021/12/22 06:18:32;;;;;;;;;;;;;;;-6.20;79.05;97221.34;5075362;28;19955;-75
2021/12/22 06:20:58;;;;;;;;;;;;;;;-6.19;79.20;97225.56;5092779;28;20007;-75
2021/12/22 06:23:24;;;;;;;;;;;;;;;-6.21;79.07;97222.28;5093345;28;20329;-75
2021/12/22 06:25:50;;;;;;;;;;;;;;;-6.25;79.17;97225.13;5093421;28;19958;-73
2021/12/22 06:28:16;;;;;;;;;;;;;;;-6.28;79.21;97231.22;5093285;28;19969;-73
2021/12/22 06:30:42;;;;;;;;;;;;;;;-6.30;78.73;97227.13;5093152;28;19952;-73
2021/12/22 06:33:08;;;;;;;;;;;;;;;-6.31;78.50;97228.84;5093228;28;20414;-74
2021/12/22 06:35:34;;;;;;;;;;;;;;;-6.33;78.13;97228.13;5094587;28;19953;-72
2021/12/22 06:38:00;;;;;;;;;;;;;;;-6.35;77.72;97223.09;5097247;28;19960;-74
2021/12/22 06:40:26;;;;;;;;;;;;;;;-6.35;77.99;97229.97;5096873;28;19969;-73
2021/12/22 06:42:51;;;;;;;;;;;;;;;-6.36;77.95;97233.44;5096873;28;19968;-74
2021/12/22 06:45:17;;;;;;;;;;;;;;;-6.37;77.73;97227.50;5097117;28;19968;-73
2021/12/22 06:47:43;;;;;;;;;;;;;;;-6.38;77.54;97225.88;5096943;28;20374;-73
2021/12/22 06:50:09;;;;;;;;;;;;;;;-6.39;77.51;97231.06;5096704;28;19960;-73
2021/12/22 06:52:35;;;;;;;;;;;;;;;-6.42;77.66;97232.06;5096959;28;19962;-73
2021/12/22 06:55:02;;;;;;;;;;;;;;;-6.43;77.38;97229.59;5096757;28;20507;-76
2021/12/22 06:57:30;;;;;;;;;;;;;;;-6.45;77.27;97241.63;5096506;28;19958;-73
2021/12/22 06:59:57;;;;;;;;;;;;;;;-6.48;76.82;97246.94;5095789;28;19983;-73
2021/12/22 07:02:25;;;;;;;;;;;;;;;-6.51;76.95;97237.69;5096513;28;19962;-72
2021/12/22 07:04:51;;;;;;;;;;;;;;;-6.53;76.91;97236.97;5096460;28;20406;-73
2021/12/22 07:07:17;;;;;;;;;;;;;;;-6.52;76.31;97241.19;5096539;28;19956;-73
2021/12/22 07:09:42;;;;;;;;;;;;;;;-6.54;76.42;97236.16;5095242;28;19957;-73
2021/12/22 07:12:09;;;;;;;;;;;;;;;-6.52;76.61;97238.63;5096231;28;19961;-73
2021/12/22 07:14:35;;;;;;;;;;;;;;;-6.52;76.92;97241.19;5078031;28;19955;-73
2021/12/22 07:17:01;;;;;;;;;;;;;;;-6.54;76.59;97243.81;5096426;28;19953;-74
2021/12/22 07:19:27;;;;;;;;;;;;;;;-6.58;76.80;97242.34;5096159;28;19976;-73
2021/12/22 07:21:54;;;;;;;;;;;;;;;-6.58;76.80;97251.75;5096198;28;19964;-75
2021/12/22 07:24:21;;;;;;;;;;;;;;;-6.60;76.28;97236.53;5096322;28;19958;-76
2021/12/22 07:26:47;;;;;;;;;;;;;;;-6.59;76.32;97242.47;5096123;28;19955;-74
2021/12/22 07:29:13;;;;;;;;;;;;;;;-6.59;76.40;97248.38;5096249;28;19968;-75
2021/12/22 07:31:39;;;;;;;;;;;;;;;-6.57;76.59;97253.41;5096204;28;19954;-75
2021/12/22 07:34:12;;;;;;;;;;;;;;;-6.53;82.02;97260.78;5095822;28;20050;-75
2021/12/22 07:36:42;;;;;;;;;;;;;;;-6.37;81.41;97260.66;5077804;28;19967;-76
2021/12/22 07:39:08;;;;;;;;;;;;;;;-6.30;78.26;97265.41;5087121;28;19974;-75
2021/12/22 07:41:34;;;;;;;;;;;;;;;-6.29;77.25;97270.41;5096378;28;19963;-74
2021/12/22 07:44:00;;;;;;;;;;;;;;;-6.30;76.81;97270.50;5095904;28;20057;-74
2021/12/22 07:46:26;;;;;;;;;;;;;;;-6.34;76.60;97275.81;5094896;28;20042;-75
2021/12/22 07:48:52;;;;;;;;;;;;;;;-6.34;76.60;97272.41;5095196;28;20044;-74
2021/12/22 07:51:18;;;;;;;;;;;;;;;-6.35;76.51;97273.34;5095795;28;19966;-75
2021/12/22 07:53:44;;;;;;;;;;;;;;;-6.33;76.53;97274.06;5095485;28;19981;-75
2021/12/22 07:56:11;;;;;;;;;;;;;;;-6.33;76.37;97268.97;5095407;28;19958;-75
2021/12/22 07:58:36;;;;;;;;;;;;;;;-6.28;76.80;97273.78;5095748;28;19942;-74
2021/12/22 08:01:02;;;;;;;;;;;;;;;-6.20;82.88;97263.94;5095429;28;20037;-73
2021/12/22 08:03:28;;;;;;;;;;;;;;;-5.88;89.15;97267.00;5095357;28;19965;-73
2021/12/22 08:05:54;;;;;;;;;;;;;;;-5.49;92.23;97267.19;5095102;28;20418;-73
2021/12/22 08:08:20;;;;;;;;;;;;;;;-5.09;93.47;97267.97;5095545;28;19952;-73
2021/12/22 08:10:46;;;;;;;;;;;;;;;-4.75;93.85;97258.91;5095114;28;19957;-73
2021/12/22 08:13:13;;;;;;;;;;;;;;;-4.39;92.17;97264.19;5094354;28;19952;-74
2021/12/22 08:15:39;;;;;;;;;;;;;;;-3.70;100.00;97257.66;5095085;28;19958;-74
2021/12/22 08:18:05;;;;;;;;;;;;;;;-2.76;100.00;97248.31;5095065;28;19962;-74
2021/12/22 08:20:31;;;;;;;;;;;;;;;-2.01;93.86;97257.19;5094843;28;20345;-74
2021/12/22 08:22:56;;;;;;;;;;;;;;;-1.82;78.73;97264.28;5094730;28;19960;-76
2021/12/22 08:25:23;;;;;;;;;;;;;;;-1.87;74.67;97258.66;5095079;28;19982;-75
2021/12/22 08:27:49;;;;;;;;;;;;;;;-2.00;73.15;97253.66;5094777;28;19957;-74
2021/12/22 08:30:15;;;;;;;;;;;;;;;-2.13;72.52;97253.00;5095130;28;19962;-75
2021/12/22 08:32:41;;;;;;;;;;;;;;;-2.26;71.29;97263.41;5095131;28;19969;-75
2021/12/22 08:35:08;;;;;;;;;;;;;;;-2.37;71.71;97263.38;5094935;28;19957;-75
2021/12/22 08:40:20;;;;;;;;;;;;;;;-2.48;71.82;97264.19;5095114;28;19982;-74
2021/12/22 08:42:46;;;;;;;;;;;;;;;-2.53;71.86;97256.84;5094680;28;19947;-75
2021/12/22 08:45:13;;;;;;;;;;;;;;;-2.53;71.88;97268.88;5094613;28;19963;-75
2021/12/22 08:47:39;;;;;;;;;;;;;;;-2.70;71.53;97265.81;5094486;28;20025;-75
2021/12/22 08:50:07;;;;;;;;;;;;;;;-2.87;71.65;97258.56;5094469;28;19965;-75
2021/12/22 08:52:33;;;;;;;;;;;;;;;-2.95;71.07;97263.44;5095115;28;19956;-75
2021/12/22 08:54:59;;;;;;;;;;;;;;;-3.04;72.01;97257.25;5094367;28;19997;-72
2021/12/22 08:57:25;;;;;;;;;;;;;;;-3.06;71.40;97253.97;5094661;28;19971;-75
2021/12/22 08:59:51;;;;;;;;;;;;;;;-3.13;71.59;97257.91;5075606;28;19971;-75
2021/12/22 09:02:17;;;;;;;;;;;;;;;-3.12;72.83;97249.28;5094323;28;19947;-72
2021/12/22 09:04:43;;;;;;;;;;;;;;;-3.05;72.47;97255.59;5094251;28;19965;-73
2021/12/22 09:07:09;;;;;;;;;;;;;;;-2.95;72.71;97248.03;5094377;28;20335;-73
2021/12/22 09:09:37;;;;;;;;;;;;;;;-2.88;71.92;97249.22;5075774;28;19963;-74
2021/12/22 09:12:04;;;;;;;;;;;;;;;-2.86;72.20;97253.31;5094372;28;19945;-73
2021/12/22 09:14:29;;;;;;;;;;;;;;;-2.82;72.79;97251.31;5093735;28;20011;-73
2021/12/22 09:16:56;;;;;;;;;;;;;;;-2.76;72.40;97256.00;5093822;28;19961;-73
2021/12/22 09:19:23;;;;;;;;;;;;;;;-2.65;72.70;97255.19;5093907;28;19980;-73
2021/12/22 09:21:51;;;;;;;;;;;;;;;-2.52;72.31;97257.66;5093635;28;19978;-73
2021/12/22 09:24:17;;;;;;;;;;;;;;;-2.32;73.27;97256.16;5094097;28;19955;-73
2021/12/22 09:26:43;;;;;;;;;;;;;;;-2.13;72.72;97255.56;5094015;28;19984;-74
2021/12/22 09:29:09;;;;;;;;;;;;;;;-2.09;71.04;97252.63;5093759;28;20425;-74
2021/12/22 09:31:35;;;;;;;;;;;;;;;-2.05;71.75;97254.03;5093659;28;19958;-73
2021/12/22 09:34:01;;;;;;;;;;;;;;;-1.89;72.07;97255.38;5093462;28;19957;-74
2021/12/22 09:36:27;;;;;;;;;;;;;;;-1.73;71.32;97255.81;5094246;28;19953;-73
2021/12/22 09:38:53;;;;;;;;;;;;;;;-1.65;71.43;97253.47;5093578;28;20310;-73
2021/12/22 09:41:19;;;;;;;;;;;;;;;-1.59;71.02;97253.94;5093455;28;20089;-74
2021/12/22 09:43:45;;;;;;;;;;;;;;;-1.65;70.72;97244.94;5093350;28;19961;-74
2021/12/22 09:46:15;;;;;;;;;;;;;;;-1.66;70.79;97254.41;5093880;28;19958;-74
2021/12/22 09:53:45;;;;;;;;;;;;;;;-1.47;71.13;97248.63;5077165;28;19966;-74
2021/12/22 09:56:12;;;;;;;;;;;;;;;-1.37;78.37;97240.16;5093813;28;19969;-73
2021/12/22 09:58:40;;;;;;;;;;;;;;;-0.75;77.08;97238.56;5093099;28;19981;-74
2021/12/22 10:01:06;;;;;;;;;;;;;;;-0.66;71.77;97235.22;5093510;28;19974;-74
2021/12/22 10:03:32;;;;;;;;;;;;;;;-0.71;69.92;97224.50;5093111;28;19950;-73
2021/12/22 10:05:58;;;;;;;;;;;;;;;-0.76;69.57;97230.00;5093459;28;20333;-74
2021/12/22 10:08:25;;;;;;;;;;;;;;;-0.88;69.35;97231.84;5093395;28;19953;-73
2021/12/22 10:11:00;;;;;;;;;;;;;;;-1.01;69.27;97226.06;5094851;28;19955;-74
2021/12/22 10:13:27;;;;;;;;;;;;;;;-1.13;69.41;97239.94;5097105;28;19963;-74
2021/12/22 10:15:54;;;;;;;;;;;;;;;-1.27;69.95;97236.72;5097917;28;19953;-74
2021/12/22 10:18:25;;;;;;;;;;;;;;;-1.31;69.73;97237.09;5079011;28;19956;-73
2021/12/22 10:20:52;;;;;;;;;;;;;;;-1.18;69.17;97224.88;5097352;28;19967;-73
2021/12/22 10:23:23;;;;;;;;;;;;;;;-1.27;67.70;97223.84;5097045;28;19959;-74
2021/12/22 10:26:00;;;;;;;;;;;;;;;-1.24;69.14;97222.78;5097155;28;19956;-74
2021/12/22 10:28:28;;;;;;;;;;;;;;;-1.20;68.37;97223.34;5095680;28;19979;-74
2021/12/22 10:30:56;;;;;;;;;;;;;;;-1.11;69.60;97218.28;5087910;28;20388;-74
2021/12/22 10:33:24;;;;;;;;;;;;;;;-1.10;68.85;97204.47;5096965;28;19958;-74
2021/12/22 10:35:51;;;;;;;;;;;;;;;-1.01;69.17;97200.31;5096859;28;19955;-74
2021/12/22 10:38:19;;;;;;;;;;;;;;;-0.90;68.99;97194.31;5096903;28;19957;-73
2021/12/22 10:40:49;;;;;;;;;;;;;;;-0.83;69.03;97185.09;5096771;28;19983;-73
2021/12/22 10:43:18;;;;;;;;;;;;;;;-0.83;68.83;97185.91;5096613;28;19959;-74
2021/12/22 10:45:45;;;;;;;;;;;;;;;-0.84;69.37;97186.03;5097130;28;19949;-74
2021/12/22 10:50:56;;;;;;;;;;;;;;;-0.81;69.01;97172.91;5096447;28;19963;-74
2021/12/22 10:53:22;;;;;;;;;;;;;;;-0.89;67.22;97170.16;5096715;28;19961;-73
2021/12/22 10:55:53;;;;;;;;;;;;;;;-0.84;69.14;97165.44;5096330;28;20350;-74
2021/12/22 10:58:27;;;;;;;;;;;;;;;-0.65;86.72;97164.69;5096307;28;19957;-73
2021/12/22 11:01:17;;;;;;;;;;;;;;;0.48;91.36;97166.13;5096350;28;19973;-74
2021/12/22 11:03:47;;;;;;;;;;;;;;;1.31;70.84;97151.69;5084604;28;20340;-75
2021/12/22 11:06:26;;;;;;;;;;;;;;;0.99;63.59;97134.81;5078396;28;19968;-74
2021/12/22 11:08:53;;;;;;;;;;;;;;;0.91;73.23;97154.53;5096284;28;19958;-73
2021/12/22 11:11:19;;;;;;;;;;;;;;;1.67;74.93;97145.81;5096164;28;19962;-74
2021/12/22 11:14:00;;;;;;;;;;;;;;;2.00;64.61;97118.53;5096063;28;20405;-74
2021/12/22 11:16:26;;;;;;;;;;;;;;;1.39;61.91;97118.19;5081189;28;20415;-74
2021/12/22 11:18:52;;;;;;;;;;;;;;;1.07;65.04;97141.03;5096076;28;19957;-73
2021/12/22 11:21:29;;;;;;;;;;;;;;;0.76;64.03;97123.97;5095759;28;20004;-73
2021/12/22 11:23:55;;;;;;;;;;;;;;;0.50;63.79;97125.53;5096019;28;19959;-74
2021/12/22 11:26:21;;;;;;;;;;;;;;;0.15;64.28;97122.56;5096000;28;19966;-73
2021/12/22 11:28:47;;;;;;;;;;;;;;;-0.06;65.22;97120.09;5096056;28;19961;-74
2021/12/22 11:31:13;;;;;;;;;;;;;;;-0.04;74.72;97120.78;5095757;28;19963;-77
2021/12/22 11:33:40;;;;;;;;;;;;;;;0.92;82.21;97110.47;5077833;28;20364;-74
2021/12/22 11:36:06;;;;;;;;;;;;;;;1.37;66.28;97101.22;5095487;28;19950;-74
2021/12/22 11:38:33;;;;;;;;;;;;;;;1.38;64.66;97098.47;5095509;28;19957;-73
2021/12/22 11:41:18;;;;;;;;;;;;;;;1.09;64.78;97105.53;5095944;28;19984;-74
2021/12/22 11:43:45;;;;;;;;;;;;;;;0.75;61.91;97085.38;5095882;28;20419;-73
2021/12/22 11:46:11;;;;;;;;;;;;;;;0.48;65.35;97114.50;5095389;28;19950;-74
2021/12/22 11:48:38;;;;;;;;;;;;;;;0.28;64.53;97103.41;5095541;28;19969;-73
2021/12/22 11:51:23;;;;;;;;;;;;;;;0.15;65.34;97107.09;5094692;28;19956;-73
2021/12/22 11:53:50;;;;;;;;;;;;;;;-0.04;66.15;97100.16;5082571;28;20020;-73
2021/12/22 11:56:35;;;;;;;;;;;;;;;-0.33;66.04;97107.06;5095200;28;20433;-74
2021/12/22 11:59:01;;;;;;;;;;;;;;;-0.60;67.17;97110.25;5095121;28;19974;-73
2021/12/22 12:01:27;;;;;;;;;;;;;;;-0.66;66.71;97109.81;5094916;28;20419;-74
2021/12/22 12:04:10;;;;;;;;;;;;;;;-0.75;67.73;97096.91;5095060;28;19963;-74
2021/12/22 12:06:46;;;;;;;;;;;;;;;-0.78;69.78;97094.59;5086172;28;19963;-74
2021/12/22 12:09:13;;;;;;;;;;;;;;;-0.88;68.98;97092.00;5094911;28;19962;-73
2021/12/22 12:11:47;;;;;;;;;;;;;;;-0.84;69.46;97083.88;5094820;28;19951;-73
2021/12/22 12:15:26;;;;;;;;;;;;;;;-0.94;69.20;97083.03;5095191;28;19961;-74
2021/12/22 12:23:19;;;;;;;;;;;;;;;-0.84;68.54;97070.16;5094705;28;19948;-73
2021/12/22 12:25:45;;;;;;;;;;;;;;;-0.81;68.62;97069.91;5094873;28;19955;-74
2021/12/22 12:28:15;;;;;;;;;;;;;;;-0.89;68.28;97072.31;5094394;28;20300;-73
2021/12/22 12:30:45;;;;;;;;;;;;;;;-0.86;69.00;97061.75;5094543;28;19958;-74
2021/12/22 12:33:18;;;;;;;;;;;;;;;-0.82;69.74;97060.53;5093866;28;20336;-73
2021/12/22 12:35:54;;;;;;;;;;;;;;;-0.83;69.33;97070.03;5094487;28;19956;-74
2021/12/22 12:38:24;;;;;;;;;;;;;;;-0.86;69.05;97065.16;5094463;28;19955;-74
2021/12/22 12:41:05;;;;;;;;;;;;;;;-0.79;70.09;97062.06;5094231;28;19970;-74
2021/12/22 12:43:40;;;;;;;;;;;;;;;-0.73;69.61;97061.53;5085946;28;19958;-74
2021/12/22 12:46:21;;;;;;;;;;;;;;;-0.71;68.46;97055.31;5094147;28;19950;-74
2021/12/22 12:48:47;;;;;;;;;;;;;;;-0.70;68.91;97051.78;5094123;28;19954;-74
2021/12/22 12:51:30;;;;;;;;;;;;;;;-0.73;69.12;97058.97;5094358;28;20119;-74
2021/12/22 12:54:02;;;;;;;;;;;;;;;-0.71;69.39;97051.94;5094056;28;19991;-73
2021/12/22 12:56:33;;;;;;;;;;;;;;;-0.70;69.42;97056.13;5094072;28;19950;-74
2021/12/22 12:59:09;;;;;;;;;;;;;;;-0.70;69.52;97053.53;5094190;28;19956;-74
2021/12/22 13:01:47;;;;;;;;;;;;;;;-0.76;69.47;97061.78;5093688;28;19997;-75
2021/12/22 13:04:20;;;;;;;;;;;;;;;-0.82;68.62;97052.81;5094241;28;19981;-75
2021/12/22 13:06:47;;;;;;;;;;;;;;;-0.87;69.05;97044.69;5093741;28;19956;-74
2021/12/22 13:09:25;;;;;;;;;;;;;;;-0.89;70.23;97049.97;5075778;28;19957;-74
2021/12/22 13:11:57;;;;;;;;;;;;;;;-0.85;69.96;97048.75;5093776;28;19951;-74
2021/12/22 13:17:15;;;;;;;;;;;;;;;-0.64;69.25;97058.97;5093740;28;19972;-74
2021/12/22 13:19:42;;;;;;;;;;;;;;;-0.66;68.24;97058.28;5093943;28;19963;-74
2021/12/22 13:22:18;;;;;;;;;;;;;;;-0.67;68.99;97058.44;5093616;28;19965;-74
2021/12/22 13:24:44;;;;;;;;;;;;;;;-0.65;69.84;97056.53;5094104;28;19952;-74
2021/12/22 13:27:10;;;;;;;;;;;;;;;-0.52;69.99;97051.94;5093522;28;20473;-74
2021/12/22 13:29:39;;;;;;;;;;;;;;;-0.35;69.77;97047.09;5094007;28;20025;-74
2021/12/22 13:32:08;;;;;;;;;;;;;;;-0.28;68.73;97041.25;5092737;28;20332;-75